sensor_id;sensor_type;location;lat;lon;timestamp;temperature;humidity
22114;DHT22;11223;49.968;9.062;2023-09-19T00:01:40;16.50;99.90
22114;DHT22;11223;49.968;9.062;2023-09-19T00:04:07;16.50;99.90
22114;DHT22;11223;49.968;9.062;2023-09-19T00:06:36;16.50;99.90
22114;DHT22;11223;49.968;9.062;2023-09-19T00:09:02;16.50;99.90
22114;DHT22;11223;49.968;9.062;2023-09-19T00:11:28;16.50;99.90
22114;DHT22;11223;49.968;9.062;2023-09-19T00:13:54;16.60;99.90
22114;DHT22;11223;49.968;9.062;2023-09-19T00:16:19;16.50;99.90
22114;DHT22;11223;49.968;9.062;2023-09-19T00:18:45;16.50;99.90
22114;DHT22;11223;49.968;9.062;2023-09-19T00:21:11;16.50;99.90
22114;DHT22;11223;49.968;9.062;2023-09-19T00:23:37;16.50;99.90
22114;DHT22;11223;49.968;9.062;2023-09-19T00:26:02;16.50;99.90
22114;DHT22;11223;49.968;9.062;2023-09-19T00:28:29;16.50;99.90
22114;DHT22;11223;49.968;9.062;2023-09-19T00:30:55;16.40;99.90
22114;DHT22;11223;49.968;9.062;2023-09-19T00:33:21;16.40;99.90
22114;DHT22;11223;49.968;9.062;2023-09-19T00:35:47;16.40;99.90
22114;DHT22;11223;49.968;9.062;2023-09-19T00:38:12;16.40;99.90
22114;DHT22;11223;49.968;9.062;2023-09-19T00:40:45;16.40;99.90
22114;DHT22;11223;49.968;9.062;2023-09-19T00:43:11;16.40;99.90
22114;DHT22;11223;49.968;9.062;2023-09-19T00:45:37;16.40;99.90
22114;DHT22;11223;49.968;9.062;2023-09-19T00:48:04;16.40;99.90
22114;DHT22;11223;49.968;9.062;2023-09-19T00:50:37;16.40;99.90
22114;DHT22;11223;49.968;9.062;2023-09-19T00:53:07;16.40;99.90
22114;DHT22;11223;49.968;9.062;2023-09-19T00:55:33;16.50;99.90
22114;DHT22;11223;49.968;9.062;2023-09-19T00:57:59;16.50;99.90
22114;DHT22;11223;49.968;9.062;2023-09-19T01:00:25;16.40;99.90
22114;DHT22;11223;49.968;9.062;2023-09-19T01:02:51;16.50;99.90
22114;DHT22;11223;49.968;9.062;2023-09-19T01:05:16;16.40;99.90
22114;DHT22;11223;49.968;9.062;2023-09-19T01:07:42;16.50;99.90
22114;DHT22;11223;49.968;9.062;2023-09-19T01:10:13;16.50;99.90
22114;DHT22;11223;49.968;9.062;2023-09-19T01:12:53;16.50;99.90
22114;DHT22;11223;49.968;9.062;2023-09-19T01:30:44;16.60;99.90
22114;DHT22;11223;49.968;9.062;2023-09-19T01:33:11;16.60;99.90
22114;DHT22;11223;49.968;9.062;2023-09-19T01:35:39;16.60;99.90
22114;DHT22;11223;49.968;9.062;2023-09-19T01:38:06;16.60;99.90
22114;DHT22;11223;49.968;9.062;2023-09-19T01:40:41;16.50;99.90
22114;DHT22;11223;49.968;9.062;2023-09-19T01:46:24;16.60;99.90
22114;DHT22;11223;49.968;9.062;2023-09-19T01:48:29;16.60;99.90
22114;DHT22;11223;49.968;9.062;2023-09-19T01:51:09;16.60;99.90
22114;DHT22;11223;49.968;9.062;2023-09-19T01:53:47;16.60;99.90
22114;DHT22;11223;49.968;9.062;2023-09-19T01:56:16;16.60;99.90
22114;DHT22;11223;49.968;9.062;2023-09-19T01:58:45;16.60;99.90
22114;DHT22;11223;49.968;9.062;2023-09-19T02:01:15;16.70;99.90
22114;DHT22;11223;49.968;9.062;2023-09-19T02:03:41;16.70;99.90
22114;DHT22;11223;49.968;9.062;2023-09-19T02:06:07;16.70;99.90
22114;DHT22;11223;49.968;9.062;2023-09-19T02:08:36;16.70;99.90
22114;DHT22;11223;49.968;9.062;2023-09-19T02:11:02;16.70;99.90
22114;DHT22;11223;49.968;9.062;2023-09-19T02:13:28;16.70;99.90
22114;DHT22;11223;49.968;9.062;2023-09-19T02:15:54;16.70;99.90
22114;DHT22;11223;49.968;9.062;2023-09-19T02:18:19;16.70;99.90
22114;DHT22;11223;49.968;9.062;2023-09-19T02:20:45;16.70;99.90
22114;DHT22;11223;49.968;9.062;2023-09-19T02:23:11;16.70;99.90
22114;DHT22;11223;49.968;9.062;2023-09-19T02:25:38;16.70;99.90
22114;DHT22;11223;49.968;9.062;2023-09-19T02:28:04;16.70;99.90
22114;DHT22;11223;49.968;9.062;2023-09-19T02:30:31;16.70;99.90
22114;DHT22;11223;49.968;9.062;2023-09-19T02:32:56;16.70;99.90
22114;DHT22;11223;49.968;9.062;2023-09-19T02:35:22;16.70;99.90
22114;DHT22;11223;49.968;9.062;2023-09-19T02:37:48;16.70;99.90
22114;DHT22;11223;49.968;9.062;2023-09-19T02:40:13;16.70;99.90
22114;DHT22;11223;49.968;9.062;2023-09-19T02:42:45;16.70;99.90
22114;DHT22;11223;49.968;9.062;2023-09-19T02:45:12;16.70;99.90
22114;DHT22;11223;49.968;9.062;2023-09-19T02:47:39;16.70;99.90
22114;DHT22;11223;49.968;9.062;2023-09-19T02:50:05;16.70;99.90
22114;DHT22;11223;49.968;9.062;2023-09-19T02:52:31;16.70;99.90
22114;DHT22;11223;49.968;9.062;2023-09-19T02:54:56;16.70;99.90
22114;DHT22;11223;49.968;9.062;2023-09-19T02:57:22;16.70;99.90
22114;DHT22;11223;49.968;9.062;2023-09-19T02:59:49;16.70;99.90
22114;DHT22;11223;49.968;9.062;2023-09-19T03:02:15;16.70;99.90
22114;DHT22;11223;49.968;9.062;2023-09-19T03:04:41;16.60;99.90
22114;DHT22;11223;49.968;9.062;2023-09-19T03:07:06;16.60;99.90
22114;DHT22;11223;49.968;9.062;2023-09-19T03:09:32;16.60;99.90
22114;DHT22;11223;49.968;9.062;2023-09-19T03:11:57;16.50;99.90
22114;DHT22;11223;49.968;9.062;2023-09-19T03:14:24;16.50;99.90
22114;DHT22;11223;49.968;9.062;2023-09-19T03:16:50;16.40;99.90
22114;DHT22;11223;49.968;9.062;2023-09-19T03:19:17;16.40;99.90
22114;DHT22;11223;49.968;9.062;2023-09-19T03:21:43;16.30;99.90
22114;DHT22;11223;49.968;9.062;2023-09-19T03:24:08;16.30;99.90
22114;DHT22;11223;49.968;9.062;2023-09-19T03:26:34;16.10;99.90
22114;DHT22;11223;49.968;9.062;2023-09-19T03:28:59;16.10;99.90
22114;DHT22;11223;49.968;9.062;2023-09-19T03:31:25;16.00;99.90
22114;DHT22;11223;49.968;9.062;2023-09-19T03:33:50;16.00;99.90
22114;DHT22;11223;49.968;9.062;2023-09-19T03:36:16;15.90;99.90
22114;DHT22;11223;49.968;9.062;2023-09-19T03:38:41;15.90;99.90
22114;DHT22;11223;49.968;9.062;2023-09-19T03:41:07;15.90;99.90
22114;DHT22;11223;49.968;9.062;2023-09-19T03:43:32;15.80;99.90
22114;DHT22;11223;49.968;9.062;2023-09-19T03:46:01;15.80;99.90
22114;DHT22;11223;49.968;9.062;2023-09-19T03:48:27;15.70;99.90
22114;DHT22;11223;49.968;9.062;2023-09-19T03:50:53;15.60;99.90
22114;DHT22;11223;49.968;9.062;2023-09-19T03:53:21;15.60;99.90
22114;DHT22;11223;49.968;9.062;2023-09-19T03:55:47;15.60;99.90
22114;DHT22;11223;49.968;9.062;2023-09-19T03:58:12;15.60;99.90
22114;DHT22;11223;49.968;9.062;2023-09-19T04:00:38;15.50;99.90
22114;DHT22;11223;49.968;9.062;2023-09-19T04:03:04;15.50;99.90
22114;DHT22;11223;49.968;9.062;2023-09-19T04:05:31;15.40;99.90
22114;DHT22;11223;49.968;9.062;2023-09-19T04:07:57;15.40;99.90
22114;DHT22;11223;49.968;9.062;2023-09-19T04:10:23;15.30;99.90
22114;DHT22;11223;49.968;9.062;2023-09-19T04:12:52;15.30;99.90
22114;DHT22;11223;49.968;9.062;2023-09-19T04:15:18;15.20;99.90
22114;DHT22;11223;49.968;9.062;2023-09-19T04:17:44;15.20;99.90
22114;DHT22;11223;49.968;9.062;2023-09-19T04:20:09;15.20;99.90
22114;DHT22;11223;49.968;9.062;2023-09-19T04:22:37;15.20;99.90
22114;DHT22;11223;49.968;9.062;2023-09-19T04:25:04;15.10;99.90
22114;DHT22;11223;49.968;9.062;2023-09-19T04:27:29;15.10;99.90
22114;DHT22;11223;49.968;9.062;2023-09-19T04:29:55;15.10;99.90
22114;DHT22;11223;49.968;9.062;2023-09-19T04:32:25;15.00;99.90
22114;DHT22;11223;49.968;9.062;2023-09-19T04:34:53;15.00;99.90
22114;DHT22;11223;49.968;9.062;2023-09-19T04:37:20;14.90;99.90
22114;DHT22;11223;49.968;9.062;2023-09-19T04:39:47;14.90;99.90
22114;DHT22;11223;49.968;9.062;2023-09-19T04:42:15;14.90;99.90
22114;DHT22;11223;49.968;9.062;2023-09-19T04:44:40;14.90;99.90
22114;DHT22;11223;49.968;9.062;2023-09-19T04:47:06;14.90;99.90
22114;DHT22;11223;49.968;9.062;2023-09-19T04:49:31;14.90;99.90
22114;DHT22;11223;49.968;9.062;2023-09-19T04:51:57;14.80;99.90
22114;DHT22;11223;49.968;9.062;2023-09-19T04:54:22;14.80;99.90
22114;DHT22;11223;49.968;9.062;2023-09-19T04:56:48;14.80;99.90
22114;DHT22;11223;49.968;9.062;2023-09-19T04:59:13;14.80;99.90
22114;DHT22;11223;49.968;9.062;2023-09-19T05:01:40;14.80;99.90
22114;DHT22;11223;49.968;9.062;2023-09-19T05:04:05;14.80;99.90
22114;DHT22;11223;49.968;9.062;2023-09-19T05:06:31;14.80;99.90
22114;DHT22;11223;49.968;9.062;2023-09-19T05:08:56;14.80;99.90
22114;DHT22;11223;49.968;9.062;2023-09-19T05:11:22;14.90;99.90
22114;DHT22;11223;49.968;9.062;2023-09-19T05:13:48;14.90;99.90
22114;DHT22;11223;49.968;9.062;2023-09-19T05:16:15;14.90;99.90
22114;DHT22;11223;49.968;9.062;2023-09-19T05:18:41;14.90;99.90
22114;DHT22;11223;49.968;9.062;2023-09-19T05:21:07;15.00;99.90
22114;DHT22;11223;49.968;9.062;2023-09-19T05:23:33;15.00;99.90
22114;DHT22;11223;49.968;9.062;2023-09-19T05:25:58;15.10;99.90
22114;DHT22;11223;49.968;9.062;2023-09-19T05:28:25;15.10;99.90
22114;DHT22;11223;49.968;9.062;2023-09-19T05:30:51;15.20;99.90
22114;DHT22;11223;49.968;9.062;2023-09-19T05:33:16;15.20;99.90
22114;DHT22;11223;49.968;9.062;2023-09-19T05:35:43;15.10;99.90
22114;DHT22;11223;49.968;9.062;2023-09-19T05:38:09;15.20;99.90
22114;DHT22;11223;49.968;9.062;2023-09-19T05:40:34;15.20;99.90
22114;DHT22;11223;49.968;9.062;2023-09-19T05:43:00;15.20;99.90
22114;DHT22;11223;49.968;9.062;2023-09-19T05:45:26;15.10;99.90
22114;DHT22;11223;49.968;9.062;2023-09-19T05:47:53;15.10;99.90
22114;DHT22;11223;49.968;9.062;2023-09-19T05:50:26;15.20;99.90
22114;DHT22;11223;49.968;9.062;2023-09-19T05:52:52;15.20;99.90
22114;DHT22;11223;49.968;9.062;2023-09-19T05:55:18;15.20;99.90
22114;DHT22;11223;49.968;9.062;2023-09-19T05:57:43;15.20;99.90
22114;DHT22;11223;49.968;9.062;2023-09-19T06:00:15;15.20;99.90
22114;DHT22;11223;49.968;9.062;2023-09-19T06:02:43;15.30;99.90
22114;DHT22;11223;49.968;9.062;2023-09-19T06:05:10;15.30;99.90
22114;DHT22;11223;49.968;9.062;2023-09-19T06:07:36;15.40;99.90
22114;DHT22;11223;49.968;9.062;2023-09-19T06:10:05;15.40;99.90
22114;DHT22;11223;49.968;9.062;2023-09-19T06:12:32;15.50;99.90
22114;DHT22;11223;49.968;9.062;2023-09-19T06:15:03;15.50;99.90
22114;DHT22;11223;49.968;9.062;2023-09-19T06:17:28;15.50;99.90
22114;DHT22;11223;49.968;9.062;2023-09-19T06:19:54;15.60;99.90
22114;DHT22;11223;49.968;9.062;2023-09-19T06:22:21;15.60;99.90
22114;DHT22;11223;49.968;9.062;2023-09-19T06:24:46;15.60;99.90
22114;DHT22;11223;49.968;9.062;2023-09-19T06:27:12;15.70;99.90
22114;DHT22;11223;49.968;9.062;2023-09-19T06:29:38;15.80;99.90
22114;DHT22;11223;49.968;9.062;2023-09-19T06:32:07;15.90;99.90
22114;DHT22;11223;49.968;9.062;2023-09-19T06:34:34;15.90;99.90
22114;DHT22;11223;49.968;9.062;2023-09-19T06:36:59;15.90;99.90
22114;DHT22;11223;49.968;9.062;2023-09-19T06:39:25;16.00;99.90
22114;DHT22;11223;49.968;9.062;2023-09-19T06:41:51;16.00;99.90
22114;DHT22;11223;49.968;9.062;2023-09-19T06:44:19;16.00;99.90
22114;DHT22;11223;49.968;9.062;2023-09-19T06:46:47;16.00;99.90
22114;DHT22;11223;49.968;9.062;2023-09-19T06:49:15;16.10;99.90
22114;DHT22;11223;49.968;9.062;2023-09-19T06:51:40;16.20;99.90
22114;DHT22;11223;49.968;9.062;2023-09-19T06:54:07;16.20;99.90
22114;DHT22;11223;49.968;9.062;2023-09-19T06:56:32;16.30;99.90
22114;DHT22;11223;49.968;9.062;2023-09-19T06:58:58;16.20;99.90
22114;DHT22;11223;49.968;9.062;2023-09-19T07:01:23;16.30;99.90
22114;DHT22;11223;49.968;9.062;2023-09-19T07:03:50;16.40;99.90
22114;DHT22;11223;49.968;9.062;2023-09-19T07:06:16;16.40;99.90
22114;DHT22;11223;49.968;9.062;2023-09-19T07:08:41;16.50;99.90
22114;DHT22;11223;49.968;9.062;2023-09-19T07:11:07;16.60;99.90
22114;DHT22;11223;49.968;9.062;2023-09-19T07:13:32;16.60;99.90
22114;DHT22;11223;49.968;9.062;2023-09-19T07:15:58;16.70;99.90
22114;DHT22;11223;49.968;9.062;2023-09-19T07:18:24;16.70;99.90
22114;DHT22;11223;49.968;9.062;2023-09-19T07:20:50;16.80;99.90
22114;DHT22;11223;49.968;9.062;2023-09-19T07:23:16;16.80;99.90
22114;DHT22;11223;49.968;9.062;2023-09-19T07:25:43;16.90;99.90
22114;DHT22;11223;49.968;9.062;2023-09-19T07:28:09;16.90;99.90
22114;DHT22;11223;49.968;9.062;2023-09-19T07:30:38;17.00;99.90
22114;DHT22;11223;49.968;9.062;2023-09-19T07:33:04;17.00;99.90
22114;DHT22;11223;49.968;9.062;2023-09-19T07:35:30;17.00;99.90
22114;DHT22;11223;49.968;9.062;2023-09-19T07:37:56;17.10;99.90
22114;DHT22;11223;49.968;9.062;2023-09-19T07:40:26;17.20;99.90
22114;DHT22;11223;49.968;9.062;2023-09-19T07:42:57;17.20;99.90
22114;DHT22;11223;49.968;9.062;2023-09-19T07:45:29;17.30;99.90
22114;DHT22;11223;49.968;9.062;2023-09-19T07:47:55;17.30;99.90
22114;DHT22;11223;49.968;9.062;2023-09-19T07:50:20;17.40;99.90
22114;DHT22;11223;49.968;9.062;2023-09-19T07:52:46;17.40;99.90
22114;DHT22;11223;49.968;9.062;2023-09-19T07:55:12;17.50;99.90
22114;DHT22;11223;49.968;9.062;2023-09-19T07:57:41;17.60;99.90
22114;DHT22;11223;49.968;9.062;2023-09-19T08:00:07;17.60;99.90
22114;DHT22;11223;49.968;9.062;2023-09-19T08:02:36;17.70;99.90
22114;DHT22;11223;49.968;9.062;2023-09-19T08:05:05;17.70;99.90
22114;DHT22;11223;49.968;9.062;2023-09-19T08:07:37;17.70;99.90
22114;DHT22;11223;49.968;9.062;2023-09-19T08:10:03;17.80;99.90
22114;DHT22;11223;49.968;9.062;2023-09-19T08:12:29;17.80;99.90
22114;DHT22;11223;49.968;9.062;2023-09-19T08:14:55;17.90;99.90
22114;DHT22;11223;49.968;9.062;2023-09-19T08:17:21;17.90;99.90
22114;DHT22;11223;49.968;9.062;2023-09-19T08:19:48;17.90;99.90
22114;DHT22;11223;49.968;9.062;2023-09-19T08:22:18;18.00;99.90
22114;DHT22;11223;49.968;9.062;2023-09-19T08:24:44;18.10;99.90
22114;DHT22;11223;49.968;9.062;2023-09-19T08:27:09;18.20;99.90
22114;DHT22;11223;49.968;9.062;2023-09-19T08:29:35;18.30;99.90
22114;DHT22;11223;49.968;9.062;2023-09-19T08:32:01;18.30;99.90
22114;DHT22;11223;49.968;9.062;2023-09-19T08:34:27;18.40;99.90
22114;DHT22;11223;49.968;9.062;2023-09-19T08:36:53;18.40;99.90
22114;DHT22;11223;49.968;9.062;2023-09-19T08:39:22;18.40;99.90
22114;DHT22;11223;49.968;9.062;2023-09-19T08:41:47;18.50;99.90
22114;DHT22;11223;49.968;9.062;2023-09-19T08:44:13;18.50;99.90
22114;DHT22;11223;49.968;9.062;2023-09-19T08:46:40;18.60;99.90
22114;DHT22;11223;49.968;9.062;2023-09-19T08:49:51;18.70;99.90
22114;DHT22;11223;49.968;9.062;2023-09-19T08:52:08;18.60;99.90
22114;DHT22;11223;49.968;9.062;2023-09-19T08:54:37;18.50;99.90
22114;DHT22;11223;49.968;9.062;2023-09-19T08:57:06;18.40;99.90
22114;DHT22;11223;49.968;9.062;2023-09-19T08:59:39;18.50;99.90
22114;DHT22;11223;49.968;9.062;2023-09-19T09:02:12;18.50;99.90
22114;DHT22;11223;49.968;9.062;2023-09-19T09:04:41;18.40;99.90
22114;DHT22;11223;49.968;9.062;2023-09-19T09:07:11;18.40;99.90
22114;DHT22;11223;49.968;9.062;2023-09-19T09:09:38;18.30;99.90
22114;DHT22;11223;49.968;9.062;2023-09-19T09:12:13;18.20;99.90
22114;DHT22;11223;49.968;9.062;2023-09-19T09:14:39;18.20;99.90
22114;DHT22;11223;49.968;9.062;2023-09-19T09:17:05;18.20;99.90
22114;DHT22;11223;49.968;9.062;2023-09-19T09:19:30;18.30;99.90
22114;DHT22;11223;49.968;9.062;2023-09-19T09:22:05;18.30;99.90
22114;DHT22;11223;49.968;9.062;2023-09-19T09:24:31;18.40;99.90
22114;DHT22;11223;49.968;9.062;2023-09-19T09:27:03;18.50;99.90
22114;DHT22;11223;49.968;9.062;2023-09-19T09:32:27;18.60;99.90
22114;DHT22;11223;49.968;9.062;2023-09-19T09:35:02;18.70;99.90
22114;DHT22;11223;49.968;9.062;2023-09-19T09:37:34;18.80;99.90
22114;DHT22;11223;49.968;9.062;2023-09-19T09:40:03;18.90;99.90
22114;DHT22;11223;49.968;9.062;2023-09-19T09:42:41;19.00;99.90
22114;DHT22;11223;49.968;9.062;2023-09-19T09:45:13;19.00;99.90
22114;DHT22;11223;49.968;9.062;2023-09-19T09:47:46;19.10;99.90
22114;DHT22;11223;49.968;9.062;2023-09-19T09:50:31;19.20;99.90
22114;DHT22;11223;49.968;9.062;2023-09-19T09:53:28;19.20;99.90
22114;DHT22;11223;49.968;9.062;2023-09-19T09:58:25;19.50;99.90
22114;DHT22;11223;49.968;9.062;2023-09-19T10:00:54;19.60;99.90
22114;DHT22;11223;49.968;9.062;2023-09-19T10:03:32;19.70;99.90
22114;DHT22;11223;49.968;9.062;2023-09-19T10:05:59;19.90;99.90
22114;DHT22;11223;49.968;9.062;2023-09-19T10:08:34;20.00;99.90
22114;DHT22;11223;49.968;9.062;2023-09-19T10:11:00;20.10;99.90
22114;DHT22;11223;49.968;9.062;2023-09-19T10:13:31;20.20;99.90
22114;DHT22;11223;49.968;9.062;2023-09-19T10:16:00;20.30;99.90
22114;DHT22;11223;49.968;9.062;2023-09-19T10:18:29;20.50;99.90
22114;DHT22;11223;49.968;9.062;2023-09-19T10:20:55;20.50;99.90
22114;DHT22;11223;49.968;9.062;2023-09-19T10:23:21;20.50;99.90
22114;DHT22;11223;49.968;9.062;2023-09-19T10:25:47;20.40;99.90
22114;DHT22;11223;49.968;9.062;2023-09-19T10:28:17;20.30;99.90
22114;DHT22;11223;49.968;9.062;2023-09-19T10:30:47;20.10;99.90
22114;DHT22;11223;49.968;9.062;2023-09-19T10:33:14;20.10;99.90
22114;DHT22;11223;49.968;9.062;2023-09-19T10:35:47;20.10;99.90
22114;DHT22;11223;49.968;9.062;2023-09-19T10:38:15;20.10;99.90
22114;DHT22;11223;49.968;9.062;2023-09-19T10:40:42;20.10;99.90
22114;DHT22;11223;49.968;9.062;2023-09-19T10:43:13;20.10;99.90
22114;DHT22;11223;49.968;9.062;2023-09-19T10:45:42;20.20;99.90
22114;DHT22;11223;49.968;9.062;2023-09-19T10:48:09;20.20;99.90
22114;DHT22;11223;49.968;9.062;2023-09-19T10:50:44;20.30;99.90
22114;DHT22;11223;49.968;9.062;2023-09-19T10:53:10;20.40;99.90
22114;DHT22;11223;49.968;9.062;2023-09-19T10:55:37;20.60;99.90
22114;DHT22;11223;49.968;9.062;2023-09-19T10:58:03;20.70;99.90
22114;DHT22;11223;49.968;9.062;2023-09-19T11:03:18;21.00;99.90
22114;DHT22;11223;49.968;9.062;2023-09-19T11:06:07;21.20;99.90
22114;DHT22;11223;49.968;9.062;2023-09-19T11:14:16;21.50;99.90
22114;DHT22;11223;49.968;9.062;2023-09-19T11:22:25;21.40;99.90
22114;DHT22;11223;49.968;9.062;2023-09-19T11:24:51;21.40;99.90
22114;DHT22;11223;49.968;9.062;2023-09-19T11:27:17;21.40;99.90
22114;DHT22;11223;49.968;9.062;2023-09-19T11:29:43;21.40;99.90
22114;DHT22;11223;49.968;9.062;2023-09-19T11:32:08;21.50;99.90
22114;DHT22;11223;49.968;9.062;2023-09-19T11:34:38;21.60;99.90
22114;DHT22;11223;49.968;9.062;2023-09-19T11:39:39;21.60;99.90
22114;DHT22;11223;49.968;9.062;2023-09-19T11:44:52;21.80;99.90
22114;DHT22;11223;49.968;9.062;2023-09-19T11:47:21;21.80;99.90
22114;DHT22;11223;49.968;9.062;2023-09-19T11:49:47;21.70;99.90
22114;DHT22;11223;49.968;9.062;2023-09-19T11:52:21;21.70;99.90
22114;DHT22;11223;49.968;9.062;2023-09-19T11:54:54;21.70;99.90
22114;DHT22;11223;49.968;9.062;2023-09-19T11:57:22;21.80;99.90
22114;DHT22;11223;49.968;9.062;2023-09-19T11:59:47;21.70;99.90
22114;DHT22;11223;49.968;9.062;2023-09-19T12:02:14;21.60;99.90
22114;DHT22;11223;49.968;9.062;2023-09-19T12:04:44;21.70;99.90
22114;DHT22;11223;49.968;9.062;2023-09-19T12:07:14;21.60;99.90
22114;DHT22;11223;49.968;9.062;2023-09-19T12:09:47;21.60;99.90
22114;DHT22;11223;49.968;9.062;2023-09-19T12:12:19;21.50;99.90
22114;DHT22;11223;49.968;9.062;2023-09-19T12:14:48;21.30;99.90
22114;DHT22;11223;49.968;9.062;2023-09-19T12:17:14;21.40;99.90
22114;DHT22;11223;49.968;9.062;2023-09-19T12:19:49;21.50;99.90
22114;DHT22;11223;49.968;9.062;2023-09-19T12:22:14;21.60;99.90
22114;DHT22;11223;49.968;9.062;2023-09-19T12:24:40;21.60;99.90
22114;DHT22;11223;49.968;9.062;2023-09-19T12:27:09;21.70;99.90
22114;DHT22;11223;49.968;9.062;2023-09-19T12:29:47;21.60;99.90
22114;DHT22;11223;49.968;9.062;2023-09-19T12:32:16;21.70;99.90
22114;DHT22;11223;49.968;9.062;2023-09-19T12:34:50;21.70;99.90
22114;DHT22;11223;49.968;9.062;2023-09-19T12:37:17;21.90;99.90
22114;DHT22;11223;49.968;9.062;2023-09-19T12:39:48;22.00;99.90
22114;DHT22;11223;49.968;9.062;2023-09-19T12:42:15;22.00;99.90
22114;DHT22;11223;49.968;9.062;2023-09-19T12:44:44;22.00;99.90
22114;DHT22;11223;49.968;9.062;2023-09-19T12:47:11;21.90;99.90
22114;DHT22;11223;49.968;9.062;2023-09-19T12:49:52;22.00;99.90
22114;DHT22;11223;49.968;9.062;2023-09-19T12:52:22;21.90;99.90
22114;DHT22;11223;49.968;9.062;2023-09-19T12:54:51;21.90;99.90
22114;DHT22;11223;49.968;9.062;2023-09-19T12:57:23;22.10;99.90
22114;DHT22;11223;49.968;9.062;2023-09-19T12:59:51;22.20;99.90
22114;DHT22;11223;49.968;9.062;2023-09-19T13:02:17;22.20;99.90
22114;DHT22;11223;49.968;9.062;2023-09-19T13:04:52;22.10;99.90
22114;DHT22;11223;49.968;9.062;2023-09-19T13:10:04;22.20;99.90
22114;DHT22;11223;49.968;9.062;2023-09-19T13:12:36;22.40;99.90
22114;DHT22;11223;49.968;9.062;2023-09-19T13:15:07;22.40;99.90
22114;DHT22;11223;49.968;9.062;2023-09-19T13:17:43;22.40;99.90
22114;DHT22;11223;49.968;9.062;2023-09-19T13:20:20;22.40;99.90
22114;DHT22;11223;49.968;9.062;2023-09-19T13:22:46;22.20;99.90
22114;DHT22;11223;49.968;9.062;2023-09-19T13:25:19;22.00;99.90
22114;DHT22;11223;49.968;9.062;2023-09-19T13:27:48;21.80;99.90
22114;DHT22;11223;49.968;9.062;2023-09-19T13:30:16;21.80;99.90
22114;DHT22;11223;49.968;9.062;2023-09-19T13:32:42;21.70;99.90
22114;DHT22;11223;49.968;9.062;2023-09-19T13:35:08;21.60;99.90
22114;DHT22;11223;49.968;9.062;2023-09-19T13:37:40;21.50;99.90
22114;DHT22;11223;49.968;9.062;2023-09-19T13:40:09;21.40;99.90
22114;DHT22;11223;49.968;9.062;2023-09-19T13:42:36;21.30;99.90
22114;DHT22;11223;49.968;9.062;2023-09-19T13:45:02;21.10;99.90
22114;DHT22;11223;49.968;9.062;2023-09-19T13:47:30;20.90;99.90
22114;DHT22;11223;49.968;9.062;2023-09-19T13:49:55;20.80;99.90
22114;DHT22;11223;49.968;9.062;2023-09-19T13:52:21;20.60;99.90
22114;DHT22;11223;49.968;9.062;2023-09-19T13:54:49;20.60;99.90
22114;DHT22;11223;49.968;9.062;2023-09-19T13:57:15;20.60;99.90
22114;DHT22;11223;49.968;9.062;2023-09-19T13:59:42;20.60;99.90
22114;DHT22;11223;49.968;9.062;2023-09-19T14:02:07;20.60;99.90
22114;DHT22;11223;49.968;9.062;2023-09-19T14:04:33;20.60;99.90
22114;DHT22;11223;49.968;9.062;2023-09-19T14:07:00;20.40;99.90
22114;DHT22;11223;49.968;9.062;2023-09-19T14:09:26;20.50;99.90
22114;DHT22;11223;49.968;9.062;2023-09-19T14:11:51;20.50;99.90
22114;DHT22;11223;49.968;9.062;2023-09-19T14:14:18;20.50;99.90
22114;DHT22;11223;49.968;9.062;2023-09-19T14:16:43;20.50;99.90
22114;DHT22;11223;49.968;9.062;2023-09-19T14:19:09;20.40;99.90
22114;DHT22;11223;49.968;9.062;2023-09-19T14:21:35;20.50;99.90
22114;DHT22;11223;49.968;9.062;2023-09-19T14:24:02;20.40;99.90
22114;DHT22;11223;49.968;9.062;2023-09-19T14:26:27;20.40;99.90
22114;DHT22;11223;49.968;9.062;2023-09-19T14:28:53;20.40;99.90
22114;DHT22;11223;49.968;9.062;2023-09-19T14:31:18;20.20;99.90
22114;DHT22;11223;49.968;9.062;2023-09-19T14:33:45;20.20;99.90
22114;DHT22;11223;49.968;9.062;2023-09-19T14:36:10;20.10;99.90
22114;DHT22;11223;49.968;9.062;2023-09-19T14:38:37;20.00;99.90
22114;DHT22;11223;49.968;9.062;2023-09-19T14:41:03;19.90;99.90
22114;DHT22;11223;49.968;9.062;2023-09-19T14:43:29;19.90;99.90
22114;DHT22;11223;49.968;9.062;2023-09-19T14:46:04;19.80;99.90
22114;DHT22;11223;49.968;9.062;2023-09-19T14:48:32;19.70;99.90
22114;DHT22;11223;49.968;9.062;2023-09-19T14:51:01;19.60;99.90
22114;DHT22;11223;49.968;9.062;2023-09-19T14:53:27;19.50;99.90
22114;DHT22;11223;49.968;9.062;2023-09-19T14:55:53;19.30;99.90
22114;DHT22;11223;49.968;9.062;2023-09-19T14:58:20;19.30;99.90
22114;DHT22;11223;49.968;9.062;2023-09-19T15:00:46;19.30;99.90
22114;DHT22;11223;49.968;9.062;2023-09-19T15:03:12;19.20;99.90
22114;DHT22;11223;49.968;9.062;2023-09-19T15:05:38;19.20;99.90
22114;DHT22;11223;49.968;9.062;2023-09-19T15:08:04;19.20;99.90
22114;DHT22;11223;49.968;9.062;2023-09-19T15:10:31;19.10;99.90
22114;DHT22;11223;49.968;9.062;2023-09-19T15:12:56;19.00;99.90
22114;DHT22;11223;49.968;9.062;2023-09-19T15:15:22;19.00;99.90
22114;DHT22;11223;49.968;9.062;2023-09-19T15:17:47;18.90;99.90
22114;DHT22;11223;49.968;9.062;2023-09-19T15:20:13;18.80;99.90
22114;DHT22;11223;49.968;9.062;2023-09-19T15:22:39;18.80;99.90
22114;DHT22;11223;49.968;9.062;2023-09-19T15:25:05;18.70;99.90
22114;DHT22;11223;49.968;9.062;2023-09-19T15:27:31;18.60;99.90
22114;DHT22;11223;49.968;9.062;2023-09-19T15:29:58;18.60;99.90
22114;DHT22;11223;49.968;9.062;2023-09-19T15:32:24;18.50;99.90
22114;DHT22;11223;49.968;9.062;2023-09-19T15:34:50;18.50;99.90
22114;DHT22;11223;49.968;9.062;2023-09-19T15:37:15;18.40;99.90
22114;DHT22;11223;49.968;9.062;2023-09-19T15:39:41;18.40;99.90
22114;DHT22;11223;49.968;9.062;2023-09-19T15:42:07;18.30;99.90
22114;DHT22;11223;49.968;9.062;2023-09-19T15:44:32;18.30;99.90
22114;DHT22;11223;49.968;9.062;2023-09-19T15:46:58;18.30;99.90
22114;DHT22;11223;49.968;9.062;2023-09-19T15:49:24;18.30;99.90
22114;DHT22;11223;49.968;9.062;2023-09-19T15:51:50;18.20;99.90
22114;DHT22;11223;49.968;9.062;2023-09-19T15:54:16;18.20;99.90
22114;DHT22;11223;49.968;9.062;2023-09-19T15:56:43;18.20;99.90
22114;DHT22;11223;49.968;9.062;2023-09-19T15:59:08;18.20;99.90
22114;DHT22;11223;49.968;9.062;2023-09-19T16:01:40;18.10;99.90
22114;DHT22;11223;49.968;9.062;2023-09-19T16:04:08;18.10;99.90
22114;DHT22;11223;49.968;9.062;2023-09-19T16:06:37;18.10;99.90
22114;DHT22;11223;49.968;9.062;2023-09-19T16:09:03;18.10;99.90
22114;DHT22;11223;49.968;9.062;2023-09-19T16:11:30;18.10;99.90
22114;DHT22;11223;49.968;9.062;2023-09-19T16:13:55;18.00;99.90
22114;DHT22;11223;49.968;9.062;2023-09-19T16:16:22;18.00;99.90
22114;DHT22;11223;49.968;9.062;2023-09-19T16:18:53;18.00;99.90